createdAt,value
2017-07-05T00:00:13.032Z,0
2017-07-05T00:00:39.162Z,0
2017-07-05T00:01:05.293Z,0
2017-07-05T00:01:31.438Z,0
2017-07-05T00:01:57.583Z,0
2017-07-05T00:02:23.720Z,0
2017-07-05T00:02:49.856Z,0
2017-07-05T00:03:15.984Z,0
2017-07-05T00:03:42.133Z,0
2017-07-05T00:04:08.268Z,0
2017-07-05T00:04:34.398Z,0
2017-07-05T00:05:00.544Z,0
2017-07-05T00:05:26.743Z,0
2017-07-05T00:05:52.814Z,0
2017-07-05T00:06:18.955Z,0
2017-07-05T00:06:45.119Z,0
2017-07-05T00:07:11.228Z,0
2017-07-05T00:07:37.370Z,0
2017-07-05T00:08:03.501Z,0
2017-07-05T00:08:29.651Z,0
2017-07-05T00:08:55.790Z,0
2017-07-05T00:09:21.920Z,0
2017-07-05T00:09:48.063Z,0
2017-07-05T00:10:14.211Z,0
2017-07-05T00:10:40.336Z,0
2017-07-05T00:11:06.477Z,0
2017-07-05T00:11:32.628Z,0
2017-07-05T00:11:58.757Z,0
2017-07-05T00:12:24.892Z,0
2017-07-05T00:12:51.039Z,0
2017-07-05T00:13:17.175Z,0
2017-07-05T00:13:43.304Z,0
2017-07-05T00:14:09.454Z,0
2017-07-05T00:14:35.593Z,0
2017-07-05T00:15:01.730Z,0
2017-07-05T00:15:27.869Z,0
2017-07-05T00:15:54.007Z,0
2017-07-05T00:16:20.161Z,0
2017-07-05T00:16:46.302Z,0
2017-07-05T00:17:12.451Z,0
2017-07-05T00:17:38.577Z,0
2017-07-05T00:18:04.721Z,0
2017-07-05T00:18:30.869Z,0
2017-07-05T00:18:56.998Z,0
2017-07-05T00:19:23.139Z,0
2017-07-05T00:19:49.280Z,0
2017-07-05T00:20:15.417Z,0
2017-07-05T00:20:41.564Z,0
2017-07-05T00:21:07.693Z,0
2017-07-05T00:21:33.830Z,0
2017-07-05T00:21:59.979Z,0
2017-07-05T00:22:26.107Z,0
2017-07-05T00:22:52.245Z,0
2017-07-05T00:23:18.390Z,0
2017-07-05T00:23:44.527Z,0
2017-07-05T00:24:10.656Z,0
2017-07-05T00:24:36.801Z,0
2017-07-05T00:25:02.940Z,0
2017-07-05T00:25:29.086Z,0
2017-07-05T00:25:55.219Z,0
2017-07-05T00:26:21.361Z,0
2017-07-05T00:26:47.499Z,0
2017-07-05T00:27:13.631Z,0
2017-07-05T00:27:39.764Z,0
2017-07-05T00:28:05.912Z,0
2017-07-05T00:28:32.051Z,0
2017-07-05T00:28:58.181Z,0
2017-07-05T00:29:24.334Z,0
2017-07-05T00:29:50.471Z,0
2017-07-05T00:30:16.611Z,0
2017-07-05T00:30:42.744Z,0
2017-07-05T00:31:08.877Z,0
2017-07-05T00:31:35.024Z,0
2017-07-05T00:32:01.163Z,0
2017-07-05T00:32:27.298Z,0
2017-07-05T00:32:53.443Z,0
2017-07-05T00:33:19.580Z,0
2017-07-05T00:33:45.711Z,0
2017-07-05T00:34:11.856Z,0
2017-07-05T00:34:37.999Z,0
2017-07-05T00:35:04.130Z,0
2017-07-05T00:35:30.269Z,0
2017-07-05T00:35:56.404Z,0
2017-07-05T00:36:22.547Z,0
2017-07-05T00:36:48.690Z,0
2017-07-05T00:37:14.820Z,0
2017-07-05T00:37:40.963Z,0
2017-07-05T00:38:07.109Z,0
2017-07-05T00:38:33.240Z,0
2017-07-05T00:38:59.381Z,0
2017-07-05T00:39:25.525Z,0
2017-07-05T00:39:51.657Z,0
2017-07-05T00:40:17.795Z,0
2017-07-05T00:40:43.965Z,0
2017-07-05T00:41:10.097Z,0
2017-07-05T00:41:36.246Z,0
2017-07-05T00:42:02.382Z,0
2017-07-05T00:42:28.513Z,0
2017-07-05T00:42:54.658Z,0
2017-07-05T00:43:20.787Z,0
2017-07-05T00:43:46.921Z,0
2017-07-05T00:44:13.066Z,0
2017-07-05T00:44:39.201Z,0
2017-07-05T00:45:05.334Z,0
2017-07-05T00:45:31.482Z,0
2017-07-05T00:45:57.619Z,0
2017-07-05T00:46:23.751Z,0
2017-07-05T00:46:49.896Z,0
2017-07-05T00:47:16.026Z,0
2017-07-05T00:47:42.173Z,0
2017-07-05T00:48:08.308Z,0
2017-07-05T00:48:34.438Z,0
2017-07-05T00:49:00.587Z,0
2017-07-05T00:49:26.721Z,0
2017-07-05T00:49:52.853Z,0
2017-07-05T00:50:18.995Z,0
2017-07-05T00:50:45.138Z,0
2017-07-05T00:51:11.270Z,0
2017-07-05T00:51:37.416Z,0
2017-07-05T00:52:03.561Z,0
2017-07-05T00:52:29.696Z,0
2017-07-05T00:52:55.831Z,0
2017-07-05T00:53:21.959Z,0
2017-07-05T00:53:48.109Z,0
2017-07-05T00:54:14.250Z,0
2017-07-05T00:54:40.379Z,0
2017-07-05T00:55:06.520Z,0
2017-07-05T00:55:32.669Z,0
2017-07-05T00:55:58.795Z,0
2017-07-05T00:56:24.936Z,0
2017-07-05T00:56:51.104Z,0
2017-07-05T00:57:17.235Z,0
2017-07-05T00:57:43.392Z,0
2017-07-05T00:58:09.538Z,0
2017-07-05T00:58:35.699Z,0
2017-07-05T00:59:01.827Z,0
2017-07-05T00:59:27.978Z,0
2017-07-05T00:59:54.112Z,0
2017-07-05T01:00:20.241Z,0
2017-07-05T01:00:46.390Z,0
2017-07-05T01:01:12.531Z,0
2017-07-05T01:01:38.659Z,0
2017-07-05T01:02:04.801Z,0
2017-07-05T01:02:30.953Z,0
2017-07-05T01:02:57.077Z,0
2017-07-05T01:03:23.219Z,0
2017-07-05T01:03:49.352Z,0
2017-07-05T01:04:15.500Z,0
2017-07-05T01:04:41.640Z,0
2017-07-05T01:05:07.770Z,0
2017-07-05T01:05:33.912Z,0
2017-07-05T01:06:00.058Z,0
2017-07-05T01:06:26.183Z,0
2017-07-05T01:06:52.329Z,0
2017-07-05T01:07:18.477Z,0
2017-07-05T01:07:44.605Z,0
2017-07-05T01:08:10.738Z,0
2017-07-05T01:08:36.887Z,0
2017-07-05T01:09:03.023Z,0
2017-07-05T01:09:29.170Z,0
2017-07-05T01:09:55.323Z,0
2017-07-05T01:10:21.457Z,0
2017-07-05T01:10:47.608Z,0
2017-07-05T01:11:13.737Z,0
2017-07-05T01:11:39.875Z,0
2017-07-05T01:12:06.019Z,0
2017-07-05T01:12:32.154Z,0
2017-07-05T01:12:58.283Z,0
2017-07-05T01:13:24.436Z,0
2017-07-05T01:13:50.573Z,0
2017-07-05T01:14:16.700Z,0
2017-07-05T01:14:42.875Z,0
2017-07-05T01:15:09.010Z,0
2017-07-05T01:15:35.151Z,0
2017-07-05T01:16:01.283Z,0
2017-07-05T01:16:27.414Z,0
2017-07-05T01:16:53.559Z,0
2017-07-05T01:17:19.699Z,0
2017-07-05T01:17:45.830Z,0
2017-07-05T01:18:11.976Z,0
2017-07-05T01:18:38.116Z,0
2017-07-05T01:19:04.246Z,0
2017-07-05T01:19:30.389Z,0
2017-07-05T01:19:56.535Z,0
2017-07-05T01:20:22.671Z,0
2017-07-05T01:20:48.805Z,0
2017-07-05T01:21:14.931Z,0
2017-07-05T01:21:41.079Z,0
2017-07-05T01:22:07.219Z,0
2017-07-05T01:22:33.347Z,0
2017-07-05T01:22:59.491Z,0
2017-07-05T01:23:25.642Z,0
2017-07-05T01:23:51.767Z,0
2017-07-05T01:24:17.906Z,0
2017-07-05T01:24:44.052Z,0
2017-07-05T01:25:10.182Z,0
2017-07-05T01:25:36.317Z,0
2017-07-05T01:26:02.452Z,0
2017-07-05T01:26:28.616Z,0
2017-07-05T01:26:54.762Z,0
2017-07-05T01:27:20.889Z,0
2017-07-05T01:27:47.032Z,0
2017-07-05T01:28:13.184Z,0
2017-07-05T01:28:39.312Z,0
2017-07-05T01:29:05.447Z,0
2017-07-05T01:29:31.594Z,0
2017-07-05T01:29:57.734Z,0
2017-07-05T01:30:23.856Z,0
2017-07-05T01:30:50.029Z,0
2017-07-05T01:31:16.163Z,0
2017-07-05T01:31:42.305Z,0
2017-07-05T01:32:08.434Z,0
2017-07-05T01:32:34.569Z,0
2017-07-05T01:33:00.717Z,0
2017-07-05T01:33:26.850Z,0
2017-07-05T01:33:52.979Z,0
2017-07-05T01:34:19.130Z,0
2017-07-05T01:34:45.263Z,0
2017-07-05T01:35:11.393Z,0
2017-07-05T01:35:37.545Z,0
2017-07-05T01:36:03.685Z,0
2017-07-05T01:36:29.813Z,0
2017-07-05T01:36:55.954Z,0
2017-07-05T01:37:22.089Z,0
2017-07-05T01:37:48.238Z,0
2017-07-05T01:38:14.377Z,0
2017-07-05T01:38:40.504Z,0
2017-07-05T01:39:06.655Z,0
2017-07-05T01:39:32.792Z,0
2017-07-05T01:39:58.923Z,0
2017-07-05T01:40:25.064Z,0
2017-07-05T01:40:51.214Z,0
2017-07-05T01:41:17.346Z,0
2017-07-05T01:41:43.481Z,0
2017-07-05T01:42:09.627Z,0
2017-07-05T01:42:35.755Z,0
2017-07-05T01:43:01.892Z,0
2017-07-05T01:43:28.036Z,0
2017-07-05T01:43:54.169Z,0
2017-07-05T01:44:20.305Z,0
2017-07-05T01:44:46.452Z,0
2017-07-05T01:45:12.590Z,0
2017-07-05T01:45:38.720Z,0
2017-07-05T01:46:04.869Z,0
2017-07-05T01:46:31.010Z,0
2017-07-05T01:46:57.141Z,0
2017-07-05T01:47:23.283Z,0
2017-07-05T01:47:49.429Z,0
2017-07-05T01:48:15.560Z,0
2017-07-05T01:48:41.695Z,0
2017-07-05T01:49:07.825Z,0
2017-07-05T01:49:33.969Z,0
2017-07-05T01:50:00.109Z,0
2017-07-05T01:50:26.240Z,0
2017-07-05T01:50:52.384Z,0
2017-07-05T01:51:18.529Z,0
2017-07-05T01:51:44.654Z,0
2017-07-05T01:52:10.793Z,0
2017-07-05T01:52:36.939Z,0
2017-07-05T01:53:03.071Z,0
2017-07-05T01:53:29.211Z,0
2017-07-05T01:53:55.347Z,0
2017-07-05T01:54:21.493Z,0
2017-07-05T01:54:47.637Z,0
2017-07-05T01:55:13.764Z,0
2017-07-05T01:55:39.902Z,0
2017-07-05T01:56:06.050Z,0
2017-07-05T01:56:32.200Z,0
2017-07-05T01:56:58.358Z,0
2017-07-05T01:57:24.503Z,0
2017-07-05T01:57:50.631Z,0
2017-07-05T01:58:16.762Z,0
2017-07-05T01:58:42.908Z,0
2017-07-05T01:59:09.050Z,0
2017-07-05T01:59:35.192Z,0
2017-07-05T02:00:01.323Z,0
2017-07-05T02:00:27.459Z,0
2017-07-05T02:00:53.607Z,0
2017-07-05T02:01:19.738Z,0
2017-07-05T02:01:45.872Z,0
2017-07-05T02:02:12.020Z,0
2017-07-05T02:02:38.157Z,0
2017-07-05T02:03:04.289Z,0
2017-07-05T02:03:30.432Z,0
2017-07-05T02:03:56.569Z,0
2017-07-05T02:04:22.700Z,0
2017-07-05T02:04:49.045Z,0
2017-07-05T02:05:15.173Z,0
2017-07-05T02:05:41.318Z,0
2017-07-05T02:06:07.480Z,0
2017-07-05T02:06:33.607Z,0
2017-07-05T02:06:59.755Z,0
2017-07-05T02:07:25.894Z,0
2017-07-05T02:07:52.033Z,0
2017-07-05T02:08:18.171Z,0
2017-07-05T02:08:44.316Z,0
2017-07-05T02:09:10.442Z,0
2017-07-05T02:09:36.584Z,0
2017-07-05T02:10:02.730Z,0
2017-07-05T02:10:28.861Z,0
2017-07-05T02:10:55.002Z,0
2017-07-05T02:11:21.158Z,0
2017-07-05T02:11:47.303Z,0
2017-07-05T02:12:13.449Z,0
2017-07-05T02:12:39.577Z,0
2017-07-05T02:13:05.716Z,0
2017-07-05T02:13:31.864Z,0
2017-07-05T02:13:57.993Z,0
2017-07-05T02:14:24.132Z,0
2017-07-05T02:14:50.278Z,0
2017-07-05T02:15:16.413Z,0
2017-07-05T02:15:42.541Z,0
2017-07-05T02:16:08.685Z,0
2017-07-05T02:16:34.823Z,0
2017-07-05T02:17:00.965Z,0
2017-07-05T02:17:27.099Z,0
2017-07-05T02:17:53.241Z,0
2017-07-05T02:18:19.384Z,0
2017-07-05T02:18:45.516Z,0
2017-07-05T02:19:11.647Z,0
2017-07-05T02:19:37.793Z,0
2017-07-05T02:20:03.932Z,0
2017-07-05T02:20:30.062Z,0
2017-07-05T02:20:56.220Z,0
2017-07-05T02:21:22.350Z,0
2017-07-05T02:21:48.493Z,0
2017-07-05T02:22:14.623Z,0
2017-07-05T02:22:40.756Z,0
2017-07-05T02:23:06.906Z,0
2017-07-05T02:23:33.045Z,0
2017-07-05T02:23:59.175Z,0
2017-07-05T02:24:25.319Z,0
2017-07-05T02:24:51.456Z,0
2017-07-05T02:25:17.584Z,0
2017-07-05T02:25:43.729Z,0
2017-07-05T02:26:09.875Z,0
2017-07-05T02:26:36.003Z,0
2017-07-05T02:27:02.135Z,0
2017-07-05T02:27:28.281Z,0
2017-07-05T02:27:54.412Z,0
2017-07-05T02:28:20.547Z,0
2017-07-05T02:28:46.694Z,0
2017-07-05T02:29:12.828Z,0
2017-07-05T02:29:38.963Z,0
2017-07-05T02:30:05.111Z,0
2017-07-05T02:30:31.249Z,0
2017-07-05T02:30:57.379Z,0
2017-07-05T02:31:23.527Z,0
2017-07-05T02:31:49.662Z,0
2017-07-05T02:32:15.796Z,0
2017-07-05T02:32:41.941Z,0
2017-07-05T02:33:08.072Z,0
2017-07-05T02:33:34.221Z,0
2017-07-05T02:34:00.355Z,0
2017-07-05T02:34:26.490Z,0
2017-07-05T02:34:52.631Z,0
2017-07-05T02:35:18.773Z,0
2017-07-05T02:35:44.902Z,0
2017-07-05T02:36:11.045Z,0
2017-07-05T02:36:37.193Z,0
2017-07-05T02:37:03.323Z,0
2017-07-05T02:37:29.461Z,0
2017-07-05T02:37:55.609Z,0
2017-07-05T02:38:21.746Z,0
2017-07-05T02:38:47.887Z,0
2017-07-05T02:39:14.016Z,0
2017-07-05T02:39:40.158Z,0
2017-07-05T02:40:06.308Z,0
2017-07-05T02:40:32.430Z,0
2017-07-05T02:40:58.573Z,0
2017-07-05T02:41:24.715Z,0
2017-07-05T02:41:50.847Z,0
2017-07-05T02:42:16.983Z,0
2017-07-05T02:42:43.127Z,0
2017-07-05T02:43:09.264Z,0
2017-07-05T02:43:35.396Z,0
2017-07-05T02:44:01.538Z,0
2017-07-05T02:44:27.679Z,0
2017-07-05T02:44:53.826Z,0
2017-07-05T02:45:19.954Z,0
2017-07-05T02:45:46.090Z,0
2017-07-05T02:46:12.239Z,0
2017-07-05T02:46:38.372Z,0
2017-07-05T02:47:04.501Z,0
2017-07-05T02:47:30.649Z,0
2017-07-05T02:47:56.781Z,0
2017-07-05T02:48:22.935Z,0
2017-07-05T02:48:49.080Z,0
2017-07-05T02:49:15.222Z,0
2017-07-05T02:49:41.361Z,0
2017-07-05T02:50:07.493Z,0
2017-07-05T02:50:33.625Z,0
2017-07-05T02:50:59.773Z,0
2017-07-05T02:51:25.910Z,0
2017-07-05T02:51:52.041Z,0
2017-07-05T02:52:18.185Z,0
2017-07-05T02:52:44.322Z,0
2017-07-05T02:53:10.455Z,0
2017-07-05T02:53:36.598Z,0
2017-07-05T02:54:02.746Z,0
2017-07-05T02:54:28.874Z,0
2017-07-05T02:54:55.013Z,0
2017-07-05T02:55:21.148Z,0
2017-07-05T02:55:47.315Z,0
2017-07-05T02:56:13.454Z,0
2017-07-05T02:56:39.582Z,0
2017-07-05T02:57:05.727Z,0
2017-07-05T02:57:31.873Z,0
2017-07-05T02:57:58.004Z,0
2017-07-05T02:58:24.144Z,0
2017-07-05T02:58:50.288Z,0
2017-07-05T02:59:16.418Z,0
2017-07-05T02:59:42.558Z,0
2017-07-05T03:00:08.728Z,0
2017-07-05T03:00:34.860Z,0
2017-07-05T03:01:01.008Z,0
2017-07-05T03:01:27.133Z,0
2017-07-05T03:01:53.273Z,0
2017-07-05T03:02:19.423Z,0
2017-07-05T03:02:45.555Z,0
2017-07-05T03:03:11.692Z,0
2017-07-05T03:03:37.840Z,0
2017-07-05T03:04:03.972Z,0
2017-07-05T03:04:30.106Z,0
2017-07-05T03:04:56.255Z,0
2017-07-05T03:05:22.397Z,0
2017-07-05T03:05:48.524Z,0
2017-07-05T03:06:14.668Z,0
2017-07-05T03:06:40.801Z,5
2017-07-05T03:07:06.949Z,5
2017-07-05T03:07:33.084Z,5
2017-07-05T03:07:59.209Z,5
2017-07-05T03:08:25.360Z,5
2017-07-05T03:08:51.494Z,5
2017-07-05T03:09:17.625Z,5
2017-07-05T03:09:43.769Z,5
2017-07-05T03:10:09.912Z,5
2017-07-05T03:10:36.040Z,5
2017-07-05T03:11:02.185Z,5
2017-07-05T03:11:28.331Z,5
2017-07-05T03:11:54.457Z,5
2017-07-05T03:12:20.598Z,5
2017-07-05T03:12:46.740Z,5
2017-07-05T03:13:12.869Z,5
2017-07-05T03:13:39.015Z,5
2017-07-05T03:14:05.153Z,5
2017-07-05T03:14:31.308Z,5
2017-07-05T03:14:57.442Z,5
2017-07-05T03:15:23.592Z,10
2017-07-05T03:15:49.726Z,10
2017-07-05T03:16:15.857Z,10
2017-07-05T03:16:42.000Z,10
2017-07-05T03:17:08.144Z,10
2017-07-05T03:17:34.282Z,10
2017-07-05T03:18:00.416Z,10
2017-07-05T03:18:26.547Z,10
2017-07-05T03:18:52.699Z,10
2017-07-05T03:19:18.833Z,10
2017-07-05T03:19:44.962Z,10
2017-07-05T03:20:11.110Z,10
2017-07-05T03:20:37.253Z,10
2017-07-05T03:21:03.380Z,10
2017-07-05T03:21:29.522Z,10
2017-07-05T03:21:55.670Z,10
2017-07-05T03:22:21.794Z,10
2017-07-05T03:22:47.935Z,10
2017-07-05T03:23:14.070Z,15
2017-07-05T03:23:40.217Z,15
2017-07-05T03:24:06.352Z,15
2017-07-05T03:24:32.484Z,15
2017-07-05T03:24:58.626Z,15
2017-07-05T03:25:24.772Z,15
2017-07-05T03:25:50.899Z,15
2017-07-05T03:26:17.044Z,15
2017-07-05T03:26:43.190Z,15
2017-07-05T03:27:09.321Z,15
2017-07-05T03:27:35.455Z,15
2017-07-05T03:28:01.601Z,15
2017-07-05T03:28:27.739Z,15
2017-07-05T03:28:53.883Z,15
2017-07-05T03:29:20.015Z,15
2017-07-05T03:29:46.152Z,15
2017-07-05T03:30:12.298Z,15
2017-07-05T03:30:38.427Z,15
2017-07-05T03:31:04.564Z,15
2017-07-05T03:31:30.711Z,15
2017-07-05T03:31:56.844Z,15
2017-07-05T03:32:22.973Z,15
2017-07-05T03:32:49.123Z,15
2017-07-05T03:33:15.258Z,15
2017-07-05T03:33:41.387Z,15
2017-07-05T03:34:07.532Z,20
2017-07-05T03:34:33.675Z,20
2017-07-05T03:34:59.801Z,20
2017-07-05T03:35:25.942Z,20
2017-07-05T03:35:52.090Z,20
2017-07-05T03:36:18.215Z,20
2017-07-05T03:36:44.358Z,20
2017-07-05T03:37:10.504Z,20
2017-07-05T03:37:36.634Z,20
2017-07-05T03:38:02.769Z,20
2017-07-05T03:38:28.917Z,25
2017-07-05T03:38:55.050Z,25
2017-07-05T03:39:21.182Z,25
2017-07-05T03:39:47.321Z,25
2017-07-05T03:40:13.462Z,25
2017-07-05T03:40:39.610Z,25
2017-07-05T03:41:05.740Z,25
2017-07-05T03:41:31.874Z,25
2017-07-05T03:41:58.021Z,25
2017-07-05T03:42:24.181Z,25
2017-07-05T03:42:50.310Z,25
2017-07-05T03:43:16.463Z,25
2017-07-05T03:43:42.618Z,25
2017-07-05T03:44:08.751Z,25
2017-07-05T03:44:34.895Z,25
2017-07-05T03:45:01.036Z,25
2017-07-05T03:45:27.175Z,25
2017-07-05T03:45:53.313Z,25
2017-07-05T03:46:19.441Z,30
2017-07-05T03:46:45.593Z,30
2017-07-05T03:47:11.729Z,30
2017-07-05T03:47:37.876Z,30
2017-07-05T03:48:04.025Z,30
2017-07-05T03:48:30.166Z,30
2017-07-05T03:48:56.294Z,30
2017-07-05T03:49:22.439Z,30
2017-07-05T03:49:48.588Z,30
2017-07-05T03:50:14.711Z,30
2017-07-05T03:50:40.856Z,30
2017-07-05T03:51:06.987Z,30
2017-07-05T03:51:33.135Z,30
2017-07-05T03:51:59.272Z,30
2017-07-05T03:52:25.403Z,30
2017-07-05T03:52:51.550Z,35
2017-07-05T03:53:17.697Z,35
2017-07-05T03:53:43.823Z,35
2017-07-05T03:54:09.964Z,35
2017-07-05T03:54:36.137Z,35
2017-07-05T03:55:02.267Z,40
2017-07-05T03:55:28.403Z,40
2017-07-05T03:55:54.701Z,40
2017-07-05T03:56:20.835Z,45
2017-07-05T03:56:46.966Z,45
2017-07-05T03:57:13.138Z,45
2017-07-05T03:57:39.275Z,50
2017-07-05T03:58:05.402Z,50
2017-07-05T03:58:31.551Z,50
2017-07-05T03:58:57.689Z,50
2017-07-05T03:59:23.822Z,55
2017-07-05T03:59:49.965Z,55
2017-07-05T04:00:16.110Z,55
2017-07-05T04:00:42.234Z,55
2017-07-05T04:01:08.378Z,60
2017-07-05T04:01:34.526Z,60
2017-07-05T04:02:00.674Z,60
2017-07-05T04:02:26.811Z,60
2017-07-05T04:02:52.946Z,60
2017-07-05T04:03:19.088Z,60
2017-07-05T04:03:45.234Z,65
2017-07-05T04:04:11.362Z,65
2017-07-05T04:04:37.501Z,65
2017-07-05T04:05:03.645Z,65
2017-07-05T04:05:29.775Z,65
2017-07-05T04:05:55.916Z,70
2017-07-05T04:06:22.061Z,70
2017-07-05T04:06:48.195Z,70
2017-07-05T04:07:14.324Z,75
2017-07-05T04:07:40.472Z,75
2017-07-05T04:08:06.607Z,75
2017-07-05T04:08:32.753Z,75
2017-07-05T04:08:58.886Z,75
2017-07-05T04:09:25.049Z,80
2017-07-05T04:09:51.193Z,80
2017-07-05T04:10:17.323Z,80
2017-07-05T04:10:43.455Z,85
2017-07-05T04:11:09.606Z,85
2017-07-05T04:11:35.767Z,85
2017-07-05T04:12:01.895Z,85
2017-07-05T04:12:28.045Z,85
2017-07-05T04:12:54.186Z,90
2017-07-05T04:13:20.329Z,90
2017-07-05T04:13:46.460Z,95
2017-07-05T04:14:12.594Z,95
2017-07-05T04:14:38.741Z,100
2017-07-05T04:15:04.879Z,100
2017-07-05T04:15:31.013Z,105
2017-07-05T04:15:57.155Z,105
2017-07-05T04:16:23.294Z,105
2017-07-05T04:16:49.427Z,110
2017-07-05T04:17:15.571Z,110
2017-07-05T04:17:41.720Z,110
2017-07-05T04:18:07.849Z,115
2017-07-05T04:18:33.988Z,115
2017-07-05T04:19:00.123Z,120
2017-07-05T04:19:26.290Z,120
2017-07-05T04:19:52.428Z,125
2017-07-05T04:20:18.558Z,125
2017-07-05T04:20:44.702Z,125
2017-07-05T04:21:10.852Z,130
2017-07-05T04:21:36.978Z,130
2017-07-05T04:22:03.124Z,135
2017-07-05T04:22:29.271Z,135
2017-07-05T04:22:55.401Z,135
2017-07-05T04:23:21.537Z,140
2017-07-05T04:23:47.686Z,140
2017-07-05T04:24:13.820Z,140
2017-07-05T04:24:39.965Z,140
2017-07-05T04:25:06.115Z,145
2017-07-05T04:25:32.256Z,145
2017-07-05T04:25:58.401Z,145
2017-07-05T04:26:24.531Z,145
2017-07-05T04:26:50.669Z,145
2017-07-05T04:27:16.815Z,145
2017-07-05T04:27:42.952Z,150
2017-07-05T04:28:09.082Z,150
2017-07-05T04:28:35.238Z,145
2017-07-05T04:29:01.369Z,135
2017-07-05T04:29:27.498Z,135
2017-07-05T04:29:53.646Z,130
2017-07-05T04:30:19.781Z,130
2017-07-05T04:30:45.928Z,130
2017-07-05T04:31:12.060Z,130
2017-07-05T04:31:38.193Z,135
2017-07-05T04:32:04.339Z,140
2017-07-05T04:32:30.475Z,145
2017-07-05T04:32:56.606Z,155
2017-07-05T04:33:22.754Z,160
2017-07-05T04:33:48.914Z,160
2017-07-05T04:34:15.047Z,160
2017-07-05T04:34:41.190Z,160
2017-07-05T04:35:07.334Z,160
2017-07-05T04:35:33.467Z,160
2017-07-05T04:35:59.604Z,160
2017-07-05T04:36:25.737Z,160
2017-07-05T04:36:51.883Z,165
2017-07-05T04:37:18.023Z,165
2017-07-05T04:37:44.157Z,165
2017-07-05T04:38:10.305Z,170
2017-07-05T04:38:36.448Z,170
2017-07-05T04:39:02.575Z,170
2017-07-05T04:39:28.714Z,175
2017-07-05T04:39:54.861Z,185
2017-07-05T04:40:20.991Z,185
2017-07-05T04:40:47.136Z,190
2017-07-05T04:41:13.278Z,190
2017-07-05T04:41:39.412Z,195
2017-07-05T04:42:05.542Z,195
2017-07-05T04:42:31.689Z,200
2017-07-05T04:42:57.829Z,205
2017-07-05T04:43:23.962Z,205
2017-07-05T04:43:50.107Z,210
2017-07-05T04:44:16.245Z,205
2017-07-05T04:44:42.377Z,220
2017-07-05T04:45:08.527Z,240
2017-07-05T04:45:34.673Z,270
2017-07-05T04:46:00.800Z,290
2017-07-05T04:46:26.937Z,320
2017-07-05T04:46:53.073Z,335
2017-07-05T04:47:19.217Z,345
2017-07-05T04:47:45.358Z,360
2017-07-05T04:48:11.487Z,360
2017-07-05T04:48:37.632Z,355
2017-07-05T04:49:03.777Z,350
2017-07-05T04:49:29.908Z,355
2017-07-05T04:49:56.048Z,350
2017-07-05T04:50:22.194Z,360
2017-07-05T04:50:48.324Z,340
2017-07-05T04:51:14.463Z,350
2017-07-05T04:51:40.609Z,370
2017-07-05T04:52:06.742Z,380
2017-07-05T04:52:32.889Z,385
2017-07-05T04:52:59.015Z,390
2017-07-05T04:53:25.159Z,390
2017-07-05T04:53:51.306Z,400
2017-07-05T04:54:17.437Z,410
2017-07-05T04:54:43.573Z,415
2017-07-05T04:55:09.722Z,405
2017-07-05T04:55:35.855Z,395
2017-07-05T04:56:01.991Z,375
2017-07-05T04:56:28.133Z,365
2017-07-05T04:56:54.273Z,355
2017-07-05T04:57:20.410Z,350
2017-07-05T04:57:46.554Z,405
2017-07-05T04:58:12.686Z,385
2017-07-05T04:58:38.835Z,365
2017-07-05T04:59:04.970Z,365
2017-07-05T04:59:31.098Z,285
2017-07-05T04:59:57.251Z,360
2017-07-05T05:00:23.387Z,375
2017-07-05T05:00:49.521Z,350
2017-07-05T05:01:15.668Z,280
2017-07-05T05:02:11.669Z,325
2017-07-05T05:02:37.802Z,310
2017-07-05T05:03:03.945Z,285
2017-07-05T05:03:30.090Z,365
2017-07-05T05:03:56.245Z,370
2017-07-05T05:04:22.394Z,315
2017-07-05T05:04:48.565Z,305
2017-07-05T05:05:14.735Z,320
2017-07-05T05:05:40.883Z,425
2017-07-05T05:06:07.013Z,320
2017-07-05T05:06:33.451Z,315
2017-07-05T05:06:59.597Z,285
2017-07-05T05:07:25.774Z,320
2017-07-05T05:07:51.956Z,335
2017-07-05T05:08:18.106Z,370
2017-07-05T05:08:44.240Z,370
2017-07-05T05:09:10.370Z,360
2017-07-05T05:09:36.516Z,340
2017-07-05T05:10:02.858Z,335
2017-07-05T05:10:28.956Z,320
2017-07-05T05:10:55.093Z,315
2017-07-05T05:11:21.227Z,310
2017-07-05T05:11:47.375Z,315
2017-07-05T05:12:13.514Z,305
2017-07-05T05:12:39.719Z,300
2017-07-05T05:13:05.891Z,300
2017-07-05T05:13:32.032Z,300
2017-07-05T05:13:58.163Z,300
2017-07-05T05:14:24.306Z,305
2017-07-05T05:14:50.455Z,305
2017-07-05T05:15:16.588Z,305
2017-07-05T05:15:42.730Z,310
2017-07-05T05:16:08.860Z,310
2017-07-05T05:16:35.008Z,310
2017-07-05T05:17:01.149Z,310
2017-07-05T05:17:27.303Z,310
2017-07-05T05:17:53.447Z,310
2017-07-05T05:18:19.591Z,310
2017-07-05T05:18:45.764Z,310
2017-07-05T05:19:11.858Z,315
2017-07-05T05:19:38.004Z,315
2017-07-05T05:20:04.135Z,315
2017-07-05T05:20:30.278Z,315
2017-07-05T05:20:56.415Z,315
2017-07-05T05:21:22.610Z,320
2017-07-05T05:21:48.943Z,320
2017-07-05T05:22:15.106Z,325
2017-07-05T05:22:41.460Z,325
2017-07-05T05:23:07.617Z,330
2017-07-05T05:23:33.752Z,330
2017-07-05T05:23:59.894Z,330
2017-07-05T05:24:26.041Z,330
2017-07-05T05:24:52.198Z,335
2017-07-05T05:25:18.328Z,335
2017-07-05T05:25:44.480Z,335
2017-07-05T05:26:10.618Z,340
2017-07-05T05:26:36.774Z,345
2017-07-05T05:27:02.918Z,340
2017-07-05T05:27:29.061Z,345
2017-07-05T05:27:55.190Z,345
2017-07-05T05:28:21.336Z,350
2017-07-05T05:28:47.482Z,350
2017-07-05T05:29:13.615Z,350
2017-07-05T05:29:39.750Z,350
2017-07-05T05:30:05.893Z,350
2017-07-05T05:30:32.028Z,355
2017-07-05T05:30:58.165Z,355
2017-07-05T05:31:24.317Z,355
2017-07-05T05:31:50.450Z,350
2017-07-05T05:32:16.623Z,350
2017-07-05T05:32:42.752Z,350
2017-07-05T05:33:08.896Z,345
2017-07-05T05:33:35.044Z,345
2017-07-05T05:34:01.174Z,345
2017-07-05T05:34:27.313Z,350
2017-07-05T05:34:53.460Z,345
2017-07-05T05:35:19.592Z,340
2017-07-05T05:35:45.724Z,345
2017-07-05T05:36:11.873Z,340
2017-07-05T05:36:38.011Z,340
2017-07-05T05:37:04.146Z,340
2017-07-05T05:37:30.290Z,340
2017-07-05T05:37:56.444Z,340
2017-07-05T05:38:22.591Z,340
2017-07-05T05:38:48.727Z,340
2017-07-05T05:39:14.856Z,340
2017-07-05T05:39:41.007Z,340
2017-07-05T05:40:07.161Z,340
2017-07-05T05:40:33.292Z,340
2017-07-05T05:40:59.436Z,340
2017-07-05T05:41:25.579Z,340
2017-07-05T05:41:51.709Z,340
2017-07-05T05:42:17.856Z,340
2017-07-05T05:42:44.004Z,345
2017-07-05T05:43:10.143Z,345
2017-07-05T05:43:36.300Z,345
2017-07-05T05:44:02.831Z,345
2017-07-05T05:44:28.980Z,350
2017-07-05T05:44:55.142Z,350
2017-07-05T05:45:21.272Z,350
2017-07-05T05:45:47.585Z,350
2017-07-05T05:46:13.735Z,350
2017-07-05T05:46:39.876Z,360
2017-07-05T05:47:06.070Z,355
2017-07-05T05:47:32.242Z,355
2017-07-05T05:47:58.377Z,355
2017-07-05T05:48:24.520Z,355
2017-07-05T05:48:50.659Z,355
2017-07-05T05:49:16.802Z,360
2017-07-05T05:49:42.947Z,360
2017-07-05T05:50:09.077Z,360
2017-07-05T05:50:35.216Z,360
2017-07-05T05:51:01.363Z,360
2017-07-05T05:51:27.509Z,360
2017-07-05T05:51:53.634Z,360
2017-07-05T05:52:19.780Z,365
2017-07-05T05:52:45.913Z,365
2017-07-05T05:53:12.045Z,370
2017-07-05T05:53:38.196Z,365
2017-07-05T05:54:04.335Z,370
2017-07-05T05:54:30.477Z,370
2017-07-05T05:54:56.609Z,370
2017-07-05T05:55:22.744Z,370
2017-07-05T05:55:48.891Z,375
2017-07-05T05:56:15.027Z,370
2017-07-05T05:56:41.185Z,370
2017-07-05T05:57:07.310Z,370
2017-07-05T05:57:33.448Z,370
2017-07-05T05:57:59.580Z,370
2017-07-05T05:58:25.725Z,370
2017-07-05T05:58:51.865Z,370
2017-07-05T05:59:18.003Z,370
2017-07-05T05:59:44.145Z,370
2017-07-05T06:00:10.276Z,370
2017-07-05T06:00:36.426Z,370
2017-07-05T06:01:02.562Z,375
2017-07-05T06:01:28.694Z,370
2017-07-05T06:01:54.838Z,370
2017-07-05T06:02:21.006Z,375
2017-07-05T06:02:47.135Z,375
2017-07-05T06:03:13.287Z,375
2017-07-05T06:03:39.432Z,375
2017-07-05T06:04:05.562Z,375
2017-07-05T06:04:31.704Z,375
2017-07-05T06:04:57.852Z,380
2017-07-05T06:05:23.984Z,380
2017-07-05T06:05:50.131Z,380
2017-07-05T06:06:16.260Z,380
2017-07-05T06:06:42.423Z,385
2017-07-05T06:07:08.572Z,385
2017-07-05T06:07:34.698Z,385
2017-07-05T06:08:00.841Z,385
2017-07-05T06:08:26.988Z,385
2017-07-05T06:08:53.120Z,390
2017-07-05T06:09:19.268Z,390
2017-07-05T06:09:45.418Z,390
2017-07-05T06:10:11.549Z,390
2017-07-05T06:10:37.678Z,395
2017-07-05T06:11:03.832Z,395
2017-07-05T06:11:29.972Z,395
2017-07-05T06:11:56.103Z,395
2017-07-05T06:12:22.252Z,395
2017-07-05T06:12:48.395Z,395
2017-07-05T06:13:14.522Z,395
2017-07-05T06:13:40.667Z,400
2017-07-05T06:14:06.816Z,400
2017-07-05T06:14:32.940Z,400
2017-07-05T06:14:59.083Z,400
2017-07-05T06:15:25.228Z,400
2017-07-05T06:15:51.357Z,400